Portada
METAR-TAF:

METAR-TAF

Aeropuertos :

Aeropuerto de Córdoba

Córdoba, España

latitud: 37-51N, longitud: 004-51W, altitud: 90 m

Observación

El informe se hizo hace 25 minutos, a las 20:30 UTC
Viento 4 kt del oeste, variando entre suroeste y oeste-noroeste
Temperatura 13°C
Humedad 88%
Presión 1016 hPa
Visibilidad 10 km o más
sin nubes por debajo de 1500 m y sin presencia de cumulonimbus.

METAR: LEBA 212030Z AUTO 26004KT 230V290 CAVOK 13/11 Q1016

Hora: 21:55 (20:55 UTC)

Pronóstico

El informe se hizo hace 6 horas y 55 minutos, a las 14:00 UTC
Pronóstico válido del 21 a las 15 UTC al 21 a las 24 UTC
Viento 5 kt del oeste-suroeste
Visibilidad 10 km o más
Nubes dispersas a una altura de 2000 ft
Probabilidad 40% :
Temporalmente
del 21 a las 15 UTC al 21 a las 20 UTC
Visibilidad: 4000 m
Cielo nuboso a una altura de 1000 ft
lluvia

TAF: LEBA 211400Z 2115/2124 24005KT 9999 SCT020 PROB40 TEMPO 2115/2120 4000 RA BKN010

Observaciones y pronósticos meteorológicos de más de 4000 aeropuertos (mensajes METAR y TAF).

Los puntos amarillos y rojos representan las estaciones disponibles.

Ponga el ratón en el punto deseado para ver el nombre de la estación.

Haga clic para ver las observaciones y los pronósticos meteorológicos.

Para cambiar el mapa : haga clic en los botones verdes con una cruz de color negro para hacer un zoom, en el botón verde con un guión para alejar o en las flechas verdes para mapas adyacentes.


METAR-TAF: